SGASSLVR

Guest
Details From SGAS - SILVIO PETTIROSSI INTL
To SLVR - VIRU VIRU INTL
Flight Number -
Tags generated
Created
Modified
Stats Distance 557 nm / 1,031 km
Max Altitude 32,100 ft / 9,784 m
Waypoints 6
Social Downloads 4
Likes 0
Share VATSIM

Download

Looking for another format? Having issues loading an existing format? Contact us
Advertisement - Login to hide

Notes

Basic altitude profile: - Ascent Rate: 2500ft/min - Ascent Speed: 250kts - Cruise Altitude: 35000ft - Cruise Speed: 420kts - Descent Rate: 1500ft/min - Descent Speed: 250kts Options: - Use NATs: yes - Use PACOTS: yes - Use low airways: yes - Use high airways: yes

Route

SGAS UKELA A556 MCL UA321 PUBIT SLVR

ID Type Via Altitude Latitude Longitude Leg Dist Tot Dist Heading (true) Name
O SGAS APT - 0 ft / 0 m -25.23985˚ -57.51914˚ - 0 nm - SILVIO PETTIROSSI INTL
UKELA FIX - 16,900 ft / 5,151 m -24.62167˚ -58.14167˚ 50 nm 50 nm 317° / 318° -
MCL NDB A556 (AWY-LO) 24,500 ft / 7,468 m -22.04250˚ -60.61694˚ 206 nm 256 nm 318° / 319° MARISCAL ESTIGARRIBIA NDB
GERNI FIX UA321 (AWY-HI) 32,100 ft / 9,784 m -19.91750˚ -61.85000˚ 145 nm 401 nm 331° / 332° -
PUBIT FIX UA321 (AWY-HI) 24,500 ft / 7,468 m -18.80327˚ -62.48666˚ 76 nm 477 nm 332° / 332° -
O SLVR APT - 0 ft / 0 m -17.64476˚ -63.13536˚ 78 nm 556 nm 332° / 332° VIRU VIRU INTL

Altitude Profile

Advertisement - Login to hide

Weather


0- 5 10 15 20 25 30 35+ Temperature / ° C

Clouds and Precipitation
Forecast for 2017-12-15 12:00 UTC. Updated an hour ago

Ground ~20,000 ft ~40,000 ft Winds

SGAS

Details ICAO SGAS (ASU)
Name SILVIO PETTIROSSI INTL
Region Paraguay
Timezone America/Asuncion (UTC-3.0)
Stats Elevation 292 ft / 89 m (AMSL)
Location -25.239850° -57.519135°
Runways 1
Magnetic Variation 14.156° W

METAR

SGAS 151230Z 07007KT 020V090 CAVOK 30/23 Q1011

Decode

TAF

Not found

Departure Runways

ID Width Length Bearing (true) Bearing (mag) Surface Threshold Offset Overrun Length
02 151 ft / 46 m 11,043 ft / 3,366 m 12.40° 26.56° Asphalt 0 ft / 0 m 161 ft / 49 m
20 151 ft / 46 m 11,043 ft / 3,366 m 192.40° 206.56° Asphalt 0 ft / 0 m 165 ft / 50 m

SLVR

Details ICAO SLVR (VVI)
Name VIRU VIRU INTL
Region Bolivia
Timezone America/La_Paz (UTC-4.0)
Stats Elevation 1,225 ft / 373 m (AMSL)
Location -17.644755° -63.135362°
Runways 1
Magnetic Variation 11.892° W

METAR

SLVR 151200Z 28005KT 9999 FEW012 BKN200 27/25 Q1012

Decode

TAF

Not found

Destination Runways

ID Width Length Bearing (true) Bearing (mag) Surface Threshold Offset Overrun Length
16 148 ft / 45 m 11,519 ft / 3,511 m 147.35° 159.24° Concrete 0 ft / 0 m 197 ft / 60 m
34 148 ft / 45 m 11,519 ft / 3,511 m 327.34° 339.23° Concrete 0 ft / 0 m 197 ft / 60 m

Approach Navaids

Runway Type Ident Frequency Range Bearing (true) Bearing (mag) Slope Elevation
34 Localiser VCZ 110.90 MHz 18 nm / 33 km 327.34° 339.24° - 1,224 ft / 373 m (AMSL)
34 Glidescope VCZ 110.90 MHz 10 nm / 19 km 327.34° 339.24° 3.00° 1,224 ft / 373 m (AMSL)

Popular Alternatives